Time;durP1;ratioP1;P1;durP2;ratioP2;P2;SDS_P1;SDS_P2;PMS_P1;PMS_P2;Temp;Humidity;BMP_temperature;BMP_pressure;BME280_temperature;BME280_humidity;BME280_pressure;Samples;Min_cycle;Max_cycle;Signal;HPM_P1;HPM_P2
2022/03/19 00:00:45;;;;;;;78.28;48.38;;;;;;;;;;5064307;28;20209;-67
2022/03/19 00:03:11;;;;;;;71.70;47.55;;;;;;;;;;5064346;28;20197;-67
2022/03/19 00:05:37;;;;;;;71.88;46.10;;;;;;;;;;5064114;28;20224;-67
2022/03/19 00:08:05;;;;;;;70.10;47.10;;;;;;;;;;5063822;28;20205;-67
2022/03/19 00:10:32;;;;;;;75.65;46.83;;;;;;;;;;5064005;28;20205;-67
2022/03/19 00:12:59;;;;;;;74.32;47.75;;;;;;;;;;5064264;28;20268;-67
2022/03/19 00:15:25;;;;;;;69.95;46.08;;;;;;;;;;5064089;28;20197;-67
2022/03/19 00:17:54;;;;;;;69.70;46.60;;;;;;;;;;5063158;28;20413;-67
2022/03/19 00:20:20;;;;;;;77.88;48.85;;;;;;;;;;5063947;28;20509;-67
2022/03/19 00:22:47;;;;;;;72.00;47.05;;;;;;;;;;5063787;28;20205;-67
2022/03/19 00:25:14;;;;;;;71.78;47.00;;;;;;;;;;5063555;28;20217;-67
2022/03/19 00:27:41;;;;;;;76.57;47.35;;;;;;;;;;5063762;28;20201;-67
2022/03/19 00:30:07;;;;;;;68.45;45.70;;;;;;;;;;5063784;28;20261;-67
2022/03/19 00:32:34;;;;;;;71.43;45.70;;;;;;;;;;5063520;28;20197;-67
2022/03/19 00:35:00;;;;;;;73.97;46.95;;;;;;;;;;5063916;28;20239;-67
2022/03/19 00:37:26;;;;;;;71.65;45.40;;;;;;;;;;5063267;28;20515;-67
2022/03/19 00:39:52;;;;;;;68.55;46.40;;;;;;;;;;5063779;28;20363;-67
2022/03/19 00:42:20;;;;;;;71.32;46.65;;;;;;;;;;5063621;28;20197;-67
2022/03/19 00:44:47;;;;;;;68.53;45.95;;;;;;;;;;5063398;28;20346;-67
2022/03/19 00:47:13;;;;;;;68.18;45.92;;;;;;;;;;5063283;28;20204;-67
2022/03/19 00:49:39;;;;;;;72.05;45.55;;;;;;;;;;5063381;28;20196;-67
2022/03/19 00:52:06;;;;;;;71.18;46.20;;;;;;;;;;5063563;28;20197;-67
2022/03/19 00:54:32;;;;;;;64.00;45.10;;;;;;;;;;5063341;28;20255;-67
2022/03/19 00:56:58;;;;;;;64.38;43.53;;;;;;;;;;5063199;28;20197;-67
2022/03/19 00:59:26;;;;;;;69.93;45.92;;;;;;;;;;5063338;28;20243;-67
2022/03/19 01:01:52;;;;;;;65.45;45.80;;;;;;;;;;5063139;28;20201;-67
2022/03/19 01:04:18;;;;;;;64.38;43.63;;;;;;;;;;5063080;28;20213;-67
2022/03/19 01:06:45;;;;;;;70.43;45.15;;;;;;;;;;5062823;28;20217;-67
2022/03/19 01:09:11;;;;;;;66.93;44.30;;;;;;;;;;5063162;28;20505;-67
2022/03/19 01:11:37;;;;;;;63.42;43.25;;;;;;;;;;5062887;28;20197;-67
2022/03/19 01:14:03;;;;;;;66.65;45.03;;;;;;;;;;5063009;28;20195;-67
2022/03/19 01:16:31;;;;;;;64.65;42.85;;;;;;;;;;5062747;28;20500;-67
2022/03/19 01:18:57;;;;;;;65.00;43.38;;;;;;;;;;5063004;28;20243;-67
2022/03/19 01:21:24;;;;;;;66.75;42.40;;;;;;;;;;5062702;28;20388;-67
2022/03/19 01:23:50;;;;;;;64.57;42.38;;;;;;;;;;5062816;28;20536;-67
2022/03/19 01:26:16;;;;;;;64.63;43.47;;;;;;;;;;5062373;28;20219;-67
2022/03/19 01:28:42;;;;;;;65.20;42.95;;;;;;;;;;5062692;28;20197;-67
2022/03/19 01:31:11;;;;;;;58.60;42.63;;;;;;;;;;5062758;28;20465;-67
2022/03/19 01:33:38;;;;;;;63.75;41.53;;;;;;;;;;5062346;28;20301;-67
2022/03/19 01:36:05;;;;;;;61.90;41.85;;;;;;;;;;5062522;28;20203;-67
2022/03/19 01:38:31;;;;;;;58.17;41.45;;;;;;;;;;5062492;28;20231;-67
2022/03/19 01:40:59;;;;;;;64.55;43.53;;;;;;;;;;5062705;28;20197;-67
2022/03/19 01:43:25;;;;;;;68.93;42.05;;;;;;;;;;5062589;28;20193;-67
2022/03/19 01:45:51;;;;;;;62.20;41.50;;;;;;;;;;5062493;28;20223;-67
2022/03/19 01:48:19;;;;;;;64.18;42.28;;;;;;;;;;5062195;28;20235;-67
2022/03/19 01:50:46;;;;;;;60.30;41.67;;;;;;;;;;5062325;28;20208;-67
2022/03/19 01:53:13;;;;;;;63.47;42.03;;;;;;;;;;5062493;28;20243;-67
2022/03/19 01:55:39;;;;;;;60.67;42.63;;;;;;;;;;5062322;28;20193;-67
2022/03/19 01:58:05;;;;;;;62.00;40.83;;;;;;;;;;5062152;28;20241;-67
2022/03/19 02:00:32;;;;;;;62.10;41.45;;;;;;;;;;5062146;28;20219;-67
2022/03/19 02:02:58;;;;;;;58.58;40.10;;;;;;;;;;5062486;28;20242;-67
2022/03/19 02:05:25;;;;;;;58.63;40.22;;;;;;;;;;5062134;28;20528;-67
2022/03/19 02:07:52;;;;;;;64.85;42.22;;;;;;;;;;5062188;28;20417;-67
2022/03/19 02:10:19;;;;;;;62.58;43.33;;;;;;;;;;5062324;28;20426;-67
2022/03/19 02:12:46;;;;;;;61.67;42.22;;;;;;;;;;5062633;28;20201;-67
2022/03/19 02:15:12;;;;;;;59.30;41.45;;;;;;;;;;5062201;28;20423;-67
2022/03/19 02:17:39;;;;;;;61.88;40.58;;;;;;;;;;5061700;28;20209;-67
2022/03/19 02:20:06;;;;;;;62.70;42.45;;;;;;;;;;5062209;28;20200;-67
2022/03/19 02:22:32;;;;;;;57.30;40.33;;;;;;;;;;5062170;28;20197;-67
2022/03/19 02:27:44;;;;;;;61.75;38.80;;;;;;;;;;5061724;28;20481;-67
2022/03/19 02:30:11;;;;;;;62.35;41.38;;;;;;;;;;5061913;28;20243;-67
2022/03/19 02:32:39;;;;;;;62.30;42.10;;;;;;;;;;5061800;28;20197;-67
2022/03/19 02:35:05;;;;;;;61.38;42.25;;;;;;;;;;5061988;28;20254;-67
2022/03/19 02:37:38;;;;;;;62.08;40.45;;;;;;;;;;5061179;28;20401;-67
2022/03/19 02:40:06;;;;;;;58.67;39.70;;;;;;;;;;5063050;28;20235;-67
2022/03/19 02:42:32;;;;;;;66.40;42.08;;;;;;;;;;5065851;28;20373;-67
2022/03/19 02:44:59;;;;;;;58.55;39.67;;;;;;;;;;5065773;28;20223;-67
2022/03/19 02:47:25;;;;;;;62.42;40.58;;;;;;;;;;5065216;28;20193;-67
2022/03/19 02:49:51;;;;;;;57.38;40.45;;;;;;;;;;5065547;28;20201;-67
2022/03/19 02:52:17;;;;;;;63.28;41.67;;;;;;;;;;5065421;28;20201;-67
2022/03/19 02:54:45;;;;;;;58.30;39.60;;;;;;;;;;5065568;28;20196;-67
2022/03/19 02:57:12;;;;;;;58.13;39.20;;;;;;;;;;5065213;28;20236;-67
2022/03/19 02:59:39;;;;;;;59.80;40.63;;;;;;;;;;5065366;28;20192;-67
2022/03/19 03:02:05;;;;;;;55.50;39.55;;;;;;;;;;5065366;28;20427;-67
2022/03/19 03:04:32;;;;;;;58.58;39.80;;;;;;;;;;5065222;28;20213;-67
2022/03/19 03:06:59;;;;;;;64.72;38.95;;;;;;;;;;5064854;28;20217;-67
2022/03/19 03:09:26;;;;;;;60.60;39.95;;;;;;;;;;5065450;28;20243;-67
2022/03/19 03:11:53;;;;;;;59.85;39.88;;;;;;;;;;5065384;28;20243;-67
2022/03/19 03:14:21;;;;;;;58.35;39.63;;;;;;;;;;5065184;28;20202;-67
2022/03/19 03:16:47;;;;;;;60.25;40.90;;;;;;;;;;5064872;28;20219;-67
2022/03/19 03:19:15;;;;;;;63.08;40.65;;;;;;;;;;5064960;28;20460;-67
2022/03/19 03:21:41;;;;;;;57.35;40.03;;;;;;;;;;5065119;28;20197;-67
2022/03/19 03:24:08;;;;;;;59.38;39.33;;;;;;;;;;5064869;28;20455;-67
2022/03/19 03:26:35;;;;;;;58.45;39.38;;;;;;;;;;5064718;28;20200;-67
2022/03/19 03:29:01;;;;;;;58.97;38.83;;;;;;;;;;5065009;28;20197;-67
2022/03/19 03:31:29;;;;;;;54.70;37.47;;;;;;;;;;5064584;28;20197;-67
2022/03/19 03:33:55;;;;;;;58.08;39.50;;;;;;;;;;5064689;28;20209;-67
2022/03/19 03:36:22;;;;;;;64.28;40.08;;;;;;;;;;5064426;28;20219;-67
2022/03/19 03:38:48;;;;;;;61.78;37.70;;;;;;;;;;5064715;28;20243;-67
2022/03/19 03:41:15;;;;;;;53.25;38.17;;;;;;;;;;5064793;28;20267;-67
2022/03/19 03:43:41;;;;;;;58.88;39.50;;;;;;;;;;5064578;28;20259;-67
2022/03/19 03:46:07;;;;;;;60.97;37.78;;;;;;;;;;5064205;28;20224;-67
2022/03/19 03:48:36;;;;;;;55.63;38.38;;;;;;;;;;5064664;28;20207;-67
2022/03/19 03:51:03;;;;;;;57.00;39.28;;;;;;;;;;5063674;28;20197;-67
2022/03/19 03:53:29;;;;;;;59.53;37.63;;;;;;;;;;5064244;28;20268;-67
2022/03/19 03:55:56;;;;;;;54.28;37.47;;;;;;;;;;5064338;28;20193;-67
2022/03/19 03:58:23;;;;;;;57.30;37.80;;;;;;;;;;5064345;28;20201;-67
2022/03/19 04:00:51;;;;;;;53.03;38.20;;;;;;;;;;5064226;28;20197;-67
2022/03/19 04:03:17;;;;;;;54.22;37.88;;;;;;;;;;5064394;28;20496;-67
2022/03/19 04:05:44;;;;;;;57.10;38.17;;;;;;;;;;5064372;28;20441;-67
2022/03/19 04:08:11;;;;;;;55.42;37.28;;;;;;;;;;5064224;28;20500;-67
2022/03/19 04:10:38;;;;;;;55.33;38.03;;;;;;;;;;5064177;28;20205;-67
2022/03/19 04:13:04;;;;;;;58.42;38.65;;;;;;;;;;5064078;28;20201;-67
2022/03/19 04:15:30;;;;;;;54.67;37.92;;;;;;;;;;5063913;28;20201;-67
2022/03/19 04:17:56;;;;;;;54.67;37.75;;;;;;;;;;5063897;28;20235;-67
2022/03/19 04:20:23;;;;;;;61.33;38.30;;;;;;;;;;5063888;28;20201;-67
2022/03/19 04:22:50;;;;;;;55.67;38.67;;;;;;;;;;5063786;28;20197;-67
2022/03/19 04:25:17;;;;;;;60.10;38.40;;;;;;;;;;5063740;28;20389;-67
2022/03/19 04:27:45;;;;;;;57.78;37.38;;;;;;;;;;5063422;28;20201;-67
2022/03/19 04:30:13;;;;;;;54.75;37.42;;;;;;;;;;5064164;28;20386;-67
2022/03/19 04:32:40;;;;;;;55.85;37.03;;;;;;;;;;5063850;28;20546;-67
2022/03/19 04:36:29;;;;;;;58.28;37.55;;;;;;;;;;5063596;28;20497;-67
2022/03/19 04:37:54;;;;;;;59.58;39.50;;;;;;;;;;5063199;28;20492;-67
2022/03/19 04:40:20;;;;;;;56.38;37.40;;;;;;;;;;5063470;28;20197;-67
2022/03/19 04:42:46;;;;;;;55.80;37.47;;;;;;;;;;5063959;28;20243;-67
2022/03/19 04:45:13;;;;;;;53.75;35.92;;;;;;;;;;5063598;28;20270;-66
2022/03/19 04:47:39;;;;;;;55.58;37.17;;;;;;;;;;5063356;28;20235;-67
2022/03/19 04:50:06;;;;;;;55.25;37.53;;;;;;;;;;5063461;28;20201;-67
2022/03/19 04:52:32;;;;;;;56.22;37.53;;;;;;;;;;5063399;28;20550;-67
2022/03/19 04:55:00;;;;;;;53.47;37.47;;;;;;;;;;5063305;28;20216;-67
2022/03/19 04:57:27;;;;;;;52.95;35.15;;;;;;;;;;5063146;28;20208;-67
2022/03/19 04:59:53;;;;;;;56.03;38.00;;;;;;;;;;5063454;28;20239;-67
2022/03/19 05:02:20;;;;;;;60.15;38.50;;;;;;;;;;5063018;28;20268;-67
2022/03/19 05:04:46;;;;;;;55.47;35.42;;;;;;;;;;5062876;28;20220;-67
2022/03/19 05:07:12;;;;;;;54.65;35.35;;;;;;;;;;5062772;28;20512;-67
2022/03/19 05:12:30;;;;;;;58.05;36.60;;;;;;;;;;5063062;28;20195;-67
2022/03/19 05:14:57;;;;;;;57.83;36.83;;;;;;;;;;5063099;28;20201;-67
2022/03/19 05:17:24;;;;;;;56.05;38.00;;;;;;;;;;5062465;28;20197;-67
2022/03/19 05:19:50;;;;;;;53.63;36.00;;;;;;;;;;5062878;28;20205;-67
2022/03/19 05:22:16;;;;;;;55.65;36.67;;;;;;;;;;5063051;28;20244;-67
2022/03/19 05:24:42;;;;;;;59.08;37.50;;;;;;;;;;5062693;28;20250;-67
2022/03/19 05:27:09;;;;;;;56.30;36.53;;;;;;;;;;5062674;28;20196;-67
2022/03/19 05:29:36;;;;;;;64.70;37.58;;;;;;;;;;5062890;28;20197;-67
2022/03/19 05:32:03;;;;;;;57.40;37.17;;;;;;;;;;5062713;28;20197;-67
2022/03/19 05:34:32;;;;;;;53.45;35.83;;;;;;;;;;5062402;28;20197;-68
2022/03/19 05:36:59;;;;;;;58.75;38.78;;;;;;;;;;5062575;28;20418;-67
2022/03/19 05:39:26;;;;;;;56.30;36.75;;;;;;;;;;5062666;28;20515;-68
2022/03/19 05:41:52;;;;;;;54.22;36.42;;;;;;;;;;5062823;28;20234;-68
2022/03/19 05:44:19;;;;;;;57.33;35.92;;;;;;;;;;5062387;28;20209;-68
2022/03/19 05:46:46;;;;;;;57.05;37.90;;;;;;;;;;5062004;28;20217;-68
2022/03/19 05:49:13;;;;;;;58.38;37.80;;;;;;;;;;5062233;28;20205;-67
2022/03/19 05:51:39;;;;;;;55.67;37.05;;;;;;;;;;5062333;28;20206;-68
2022/03/19 05:54:05;;;;;;;54.90;36.17;;;;;;;;;;5062324;28;20209;-68
2022/03/19 05:56:32;;;;;;;52.42;36.50;;;;;;;;;;5061914;28;20197;-68
2022/03/19 05:58:58;;;;;;;53.13;35.92;;;;;;;;;;5062226;28;20197;-68
2022/03/19 06:01:26;;;;;;;57.80;36.92;;;;;;;;;;5062289;28;20224;-67
2022/03/19 06:03:54;;;;;;;54.13;36.20;;;;;;;;;;5062309;28;20205;-68
2022/03/19 06:06:21;;;;;;;55.08;38.03;;;;;;;;;;5061911;28;20229;-68
2022/03/19 06:08:47;;;;;;;54.28;36.13;;;;;;;;;;5062373;28;20504;-67
2022/03/19 06:11:14;;;;;;;54.92;36.75;;;;;;;;;;5062290;28;20197;-68
2022/03/19 06:13:40;;;;;;;55.45;35.60;;;;;;;;;;5062186;28;20197;-67
2022/03/19 06:16:06;;;;;;;50.22;34.85;;;;;;;;;;5064888;28;20433;-68
2022/03/19 06:18:32;;;;;;;54.80;37.08;;;;;;;;;;5066465;28;20197;-68
2022/03/19 06:21:00;;;;;;;55.30;36.22;;;;;;;;;;5066174;28;20205;-67
2022/03/19 06:23:27;;;;;;;55.58;35.55;;;;;;;;;;5066254;28;20204;-67
2022/03/19 06:25:53;;;;;;;55.92;36.05;;;;;;;;;;5066015;28;20448;-67
2022/03/19 06:28:20;;;;;;;58.63;36.85;;;;;;;;;;5065885;28;20412;-67
2022/03/19 06:30:46;;;;;;;54.75;36.22;;;;;;;;;;5065893;28;20433;-68
2022/03/19 06:33:13;;;;;;;52.60;34.03;;;;;;;;;;5066050;28;20251;-67
2022/03/19 06:38:25;;;;;;;54.08;35.35;;;;;;;;;;5065912;28;20197;-67
2022/03/19 06:40:51;;;;;;;52.40;36.22;;;;;;;;;;5065788;28;20211;-67
2022/03/19 06:43:18;;;;;;;55.25;36.58;;;;;;;;;;5065924;28;20422;-67
2022/03/19 06:45:44;;;;;;;57.72;35.42;;;;;;;;;;5065678;28;20221;-67
2022/03/19 06:48:10;;;;;;;53.13;35.45;;;;;;;;;;5065523;28;20197;-67
2022/03/19 06:50:37;;;;;;;47.17;33.28;;;;;;;;;;5065620;28;20197;-67
2022/03/19 06:53:03;;;;;;;56.05;35.85;;;;;;;;;;5065598;28;20551;-67
2022/03/19 06:55:31;;;;;;;54.05;34.65;;;;;;;;;;5065685;28;20193;-67
2022/03/19 06:57:57;;;;;;;55.83;36.03;;;;;;;;;;5064956;28;20232;-67
2022/03/19 07:00:23;;;;;;;52.22;35.38;;;;;;;;;;5065682;28;20228;-67
2022/03/19 07:02:50;;;;;;;52.10;34.17;;;;;;;;;;5065423;28;20438;-67
2022/03/19 07:05:19;;;;;;;50.72;33.53;;;;;;;;;;5065166;28;20221;-67
2022/03/19 07:07:45;;;;;;;52.92;34.17;;;;;;;;;;5065158;28;20222;-67
2022/03/19 07:10:11;;;;;;;49.05;34.13;;;;;;;;;;5065151;28;20209;-67
2022/03/19 07:12:43;;;;;;;52.25;34.05;;;;;;;;;;5065155;28;20212;-67
2022/03/19 07:15:11;;;;;;;52.58;33.83;;;;;;;;;;5065267;28;20500;-67
2022/03/19 07:17:38;;;;;;;48.67;33.05;;;;;;;;;;5064922;28;20430;-67
2022/03/19 07:20:04;;;;;;;55.22;35.20;;;;;;;;;;5064985;28;20207;-67
2022/03/19 07:22:45;;;;;;;51.75;32.30;;;;;;;;;;5064957;28;20227;-67
2022/03/19 07:25:11;;;;;;;48.97;32.20;;;;;;;;;;5064903;28;20220;-67
2022/03/19 07:27:38;;;;;;;53.85;34.53;;;;;;;;;;5064537;28;20197;-67
2022/03/19 07:30:06;;;;;;;47.70;32.88;;;;;;;;;;5064954;28;20197;-67
2022/03/19 07:32:32;;;;;;;49.50;31.58;;;;;;;;;;5064770;28;20198;-67
2022/03/19 07:35:00;;;;;;;48.80;30.83;;;;;;;;;;5064827;28;20231;-67
2022/03/19 07:37:26;;;;;;;43.50;29.90;;;;;;;;;;5064513;28;20280;-67
2022/03/19 07:39:52;;;;;;;45.25;30.45;;;;;;;;;;5064930;28;20235;-67
2022/03/19 07:42:17;;;;;;;45.03;29.33;;;;;;;;;;5064985;28;20204;-67
2022/03/19 07:44:44;;;;;;;47.63;29.42;;;;;;;;;;5064538;28;20208;-67
2022/03/19 07:47:11;;;;;;;43.92;29.35;;;;;;;;;;5064799;28;20239;-67
2022/03/19 07:49:39;;;;;;;42.80;29.40;;;;;;;;;;5064583;28;20201;-67
2022/03/19 07:52:06;;;;;;;45.00;29.08;;;;;;;;;;5064363;28;20264;-67
2022/03/19 07:54:32;;;;;;;43.33;28.50;;;;;;;;;;5064724;28;20197;-67
2022/03/19 07:56:59;;;;;;;47.35;29.45;;;;;;;;;;5064233;28;20423;-67
2022/03/19 07:59:25;;;;;;;49.28;30.27;;;;;;;;;;5064315;28;20497;-67
2022/03/19 08:01:51;;;;;;;40.97;26.88;;;;;;;;;;5064310;28;20261;-67
2022/03/19 08:04:19;;;;;;;39.47;26.92;;;;;;;;;;5064190;28;20197;-67
2022/03/19 08:06:45;;;;;;;42.72;28.17;;;;;;;;;;5063742;28;20573;-67
2022/03/19 08:09:12;;;;;;;39.25;27.92;;;;;;;;;;5064364;28;20197;-67
2022/03/19 08:11:39;;;;;;;41.47;28.88;;;;;;;;;;5064048;28;20197;-67
2022/03/19 08:14:06;;;;;;;41.15;28.20;;;;;;;;;;5064019;28;20203;-67
2022/03/19 08:16:32;;;;;;;37.15;26.73;;;;;;;;;;5063765;28;20197;-67
2022/03/19 08:18:58;;;;;;;43.30;27.13;;;;;;;;;;5063941;28;20230;-67
2022/03/19 08:21:26;;;;;;;40.03;26.20;;;;;;;;;;5063880;28;20203;-67
2022/03/19 08:23:52;;;;;;;42.92;27.65;;;;;;;;;;5064007;28;20208;-67
2022/03/19 08:26:18;;;;;;;36.42;25.63;;;;;;;;;;5063617;28;20245;-67
2022/03/19 08:28:45;;;;;;;36.38;26.02;;;;;;;;;;5063787;28;20197;-67
2022/03/19 08:31:11;;;;;;;39.13;26.23;;;;;;;;;;5063794;28;20196;-67
2022/03/19 08:33:37;;;;;;;36.60;25.42;;;;;;;;;;5063531;28;20251;-67
2022/03/19 08:36:04;;;;;;;41.05;27.15;;;;;;;;;;5063398;28;20421;-67
2022/03/19 08:41:21;;;;;;;36.22;23.67;;;;;;;;;;5025147;28;20209;-67
2022/03/19 08:43:47;;;;;;;33.65;23.10;;;;;;;;;;5063481;28;20493;-67
2022/03/19 08:46:13;;;;;;;36.67;24.58;;;;;;;;;;5062987;28;20221;-68
2022/03/19 08:48:40;;;;;;;33.42;24.48;;;;;;;;;;5063557;28;20245;-67
2022/03/19 08:53:51;;;;;;;32.30;23.48;;;;;;;;;;5063367;28;20191;-67
2022/03/19 08:56:18;;;;;;;32.88;23.10;;;;;;;;;;5062955;28;20207;-67
2022/03/19 08:58:44;;;;;;;32.08;23.40;;;;;;;;;;5063034;28;20197;-67
2022/03/19 09:01:10;;;;;;;38.20;24.25;;;;;;;;;;5063012;28;20236;-67
2022/03/19 09:03:36;;;;;;;33.13;23.20;;;;;;;;;;5063543;28;20424;-67
2022/03/19 09:06:03;;;;;;;34.42;23.63;;;;;;;;;;5062636;28;20220;-68
2022/03/19 09:08:29;;;;;;;36.40;23.35;;;;;;;;;;5062998;28;20559;-68
2022/03/19 09:10:58;;;;;;;34.10;23.55;;;;;;;;;;5062880;28;20430;-68
2022/03/19 09:13:24;;;;;;;36.42;25.10;;;;;;;;;;5062725;28;20235;-68
2022/03/19 09:15:51;;;;;;;35.70;23.83;;;;;;;;;;5063039;28;20200;-68
2022/03/19 09:18:18;;;;;;;35.53;25.05;;;;;;;;;;5062673;28;20515;-68
2022/03/19 09:20:44;;;;;;;38.78;25.58;;;;;;;;;;5062774;28;20209;-56
2022/03/19 09:23:10;;;;;;;35.72;24.27;;;;;;;;;;5062812;28;20197;-56
2022/03/19 09:25:37;;;;;;;39.28;25.30;;;;;;;;;;5062607;28;20213;-56
2022/03/19 09:28:05;;;;;;;38.10;25.50;;;;;;;;;;5062283;28;20394;-57
2022/03/19 09:30:31;;;;;;;37.25;24.17;;;;;;;;;;5062717;28;20385;-57
2022/03/19 09:32:57;;;;;;;37.95;25.55;;;;;;;;;;5062770;28;20244;-56
2022/03/19 09:35:24;;;;;;;33.90;25.33;;;;;;;;;;5062630;28;20260;-56
2022/03/19 09:37:51;;;;;;;34.17;23.63;;;;;;;;;;5062194;28;20193;-55
2022/03/19 09:40:18;;;;;;;36.38;26.30;;;;;;;;;;5062260;28;20207;-55
2022/03/19 09:42:47;;;;;;;35.80;24.55;;;;;;;;;;5062515;28;20362;-63
2022/03/19 09:45:18;;;;;;;37.90;23.85;;;;;;;;;;5062719;28;20197;-56
2022/03/19 09:47:44;;;;;;;34.53;25.13;;;;;;;;;;5062205;28;20228;-56
2022/03/19 09:50:10;;;;;;;37.20;25.58;;;;;;;;;;5062379;28;20383;-56
2022/03/19 09:52:37;;;;;;;34.80;25.52;;;;;;;;;;5062312;28;20450;-56
2022/03/19 09:55:04;;;;;;;36.60;25.92;;;;;;;;;;5062242;28;20197;-56
2022/03/19 09:57:31;;;;;;;40.70;26.25;;;;;;;;;;5062180;28;20199;-57
2022/03/19 09:59:57;;;;;;;35.90;26.17;;;;;;;;;;5062292;28;20383;-57
2022/03/19 10:02:25;;;;;;;37.92;25.63;;;;;;;;;;5062277;28;20386;-56
2022/03/19 10:04:51;;;;;;;34.55;25.48;;;;;;;;;;5062061;28;20247;-56
2022/03/19 10:10:07;;;;;;;34.05;24.80;;;;;;;;;;5062200;28;20248;-56
2022/03/19 10:12:33;;;;;;;38.00;25.23;;;;;;;;;;5062082;28;20258;-56
2022/03/19 10:15:00;;;;;;;35.67;24.90;;;;;;;;;;5061981;28;20268;-56
2022/03/19 10:17:29;;;;;;;33.65;25.88;;;;;;;;;;5061826;28;20489;-56
2022/03/19 10:19:58;;;;;;;32.63;25.05;;;;;;;;;;5061887;28;20236;-56
2022/03/19 10:22:25;;;;;;;33.83;24.48;;;;;;;;;;5062158;28;20197;-57
2022/03/19 10:24:56;;;;;;;38.72;25.95;;;;;;;;;;5061985;28;20204;-55
2022/03/19 10:27:22;;;;;;;36.55;26.17;;;;;;;;;;5061195;28;20524;-58
2022/03/19 10:30:01;;;;;;;35.95;26.90;;;;;;;;;;5055429;28;20213;-57
2022/03/19 10:32:29;;;;;;;33.78;25.02;;;;;;;;;;5064010;28;20252;-58
2022/03/19 10:34:55;;;;;;;38.17;27.40;;;;;;;;;;5054612;28;20213;-57
2022/03/19 10:37:32;;;;;;;39.90;26.92;;;;;;;;;;5056170;28;20212;-57
2022/03/19 10:39:58;;;;;;;37.78;27.65;;;;;;;;;;5056366;28;20208;-57
2022/03/19 10:42:25;;;;;;;39.35;28.95;;;;;;;;;;5056734;28;20213;-58
2022/03/19 10:44:52;;;;;;;39.58;27.65;;;;;;;;;;5056324;28;20213;-57
2022/03/19 10:47:22;;;;;;;40.53;27.85;;;;;;;;;;5055925;28;20232;-57
2022/03/19 10:49:49;;;;;;;37.83;26.85;;;;;;;;;;5055959;28;20251;-56
2022/03/19 10:52:17;;;;;;;41.28;28.50;;;;;;;;;;5055880;28;20205;-56
2022/03/19 10:54:43;;;;;;;37.92;28.15;;;;;;;;;;5055947;28;20276;-57
2022/03/19 10:57:10;;;;;;;38.55;26.92;;;;;;;;;;5055927;28;20205;-57
2022/03/19 10:59:36;;;;;;;34.22;25.88;;;;;;;;;;5055634;28;20213;-57
2022/03/19 11:02:03;;;;;;;35.50;23.95;;;;;;;;;;5058908;28;20434;-57
2022/03/19 11:04:31;;;;;;;32.13;22.17;;;;;;;;;;5060053;28;20536;-56
2022/03/19 11:06:59;;;;;;;30.88;21.63;;;;;;;;;;5059731;28;20224;-57
2022/03/19 11:09:27;;;;;;;26.70;20.60;;;;;;;;;;5059534;28;20201;-58
2022/03/19 11:11:55;;;;;;;30.58;20.52;;;;;;;;;;5059578;28;20209;-56
2022/03/19 11:14:23;;;;;;;32.38;21.90;;;;;;;;;;5059642;28;20477;-56
2022/03/19 11:17:23;;;;;;;35.15;20.98;;;;;;;;;;5059687;28;20259;-58
2022/03/19 11:19:37;;;;;;;28.55;19.83;;;;;;;;;;5059083;28;20205;-57
2022/03/19 11:22:05;;;;;;;23.05;17.13;;;;;;;;;;5062271;28;20235;-57
2022/03/19 11:24:33;;;;;;;22.75;15.70;;;;;;;;;;5064661;28;20204;-58
2022/03/19 11:27:00;;;;;;;17.65;13.90;;;;;;;;;;5064520;28;20225;-68
2022/03/19 11:29:27;;;;;;;20.85;15.00;;;;;;;;;;5064943;28;20534;-68
2022/03/19 11:31:57;;;;;;;18.40;14.68;;;;;;;;;;5064179;28;20250;-68
2022/03/19 11:34:23;;;;;;;17.35;13.57;;;;;;;;;;5064579;28;20224;-68
2022/03/19 11:36:57;;;;;;;20.25;14.65;;;;;;;;;;5064470;28;20216;-68
2022/03/19 11:39:25;;;;;;;21.30;14.77;;;;;;;;;;5064759;28;20243;-68
2022/03/19 11:41:51;;;;;;;18.95;14.18;;;;;;;;;;5064882;28;20204;-68
2022/03/19 11:44:18;;;;;;;21.13;14.93;;;;;;;;;;5064702;28;20235;-68
2022/03/19 11:47:01;;;;;;;18.95;14.20;;;;;;;;;;5064487;28;20197;-68
2022/03/19 11:49:49;;;;;;;19.27;15.05;;;;;;;;;;5064519;28;20197;-68
2022/03/19 11:52:19;;;;;;;20.38;14.40;;;;;;;;;;5059696;28;20219;-68
2022/03/19 11:55:04;;;;;;;17.73;14.38;;;;;;;;;;5064507;28;20198;-68
2022/03/19 11:57:47;;;;;;;20.48;15.75;;;;;;;;;;5064214;28;20193;-68
2022/03/19 12:00:14;;;;;;;19.63;15.93;;;;;;;;;;5064342;28;20208;-68
2022/03/19 12:02:55;;;;;;;19.77;15.75;;;;;;;;;;5064420;28;20205;-68
2022/03/19 12:05:27;;;;;;;20.60;14.02;;;;;;;;;;5064047;28;20259;-68
2022/03/19 12:07:55;;;;;;;19.40;15.18;;;;;;;;;;5063994;28;20244;-68
2022/03/19 12:10:24;;;;;;;20.02;14.93;;;;;;;;;;5064591;28;20200;-68
2022/03/19 12:12:50;;;;;;;18.70;14.48;;;;;;;;;;5063495;28;20228;-68
2022/03/19 12:15:35;;;;;;;18.45;14.93;;;;;;;;;;5064214;28;20204;-68
2022/03/19 12:18:17;;;;;;;24.05;14.40;;;;;;;;;;5063773;28;20193;-67
2022/03/19 12:20:43;;;;;;;17.27;12.38;;;;;;;;;;5063701;28;20388;-67
2022/03/19 12:23:11;;;;;;;17.98;12.25;;;;;;;;;;5064085;28;20259;-67
2022/03/19 12:25:42;;;;;;;15.55;11.77;;;;;;;;;;5064063;28;20255;-68
2022/03/19 12:28:09;;;;;;;17.75;11.57;;;;;;;;;;5063756;28;20255;-68
2022/03/19 12:30:36;;;;;;;19.02;12.85;;;;;;;;;;5064009;28;20197;-67
2022/03/19 12:33:02;;;;;;;20.42;12.57;;;;;;;;;;5063845;28;20231;-67
2022/03/19 12:35:38;;;;;;;19.05;12.60;;;;;;;;;;5063456;28;20197;-68
2022/03/19 12:38:06;;;;;;;13.90;11.10;;;;;;;;;;5063547;28;20199;-68
2022/03/19 12:43:15;;;;;;;15.27;10.77;;;;;;;;;;5063074;28;20190;-68
2022/03/19 12:45:42;;;;;;;15.07;10.25;;;;;;;;;;5063263;28;20497;-68
2022/03/19 12:48:10;;;;;;;14.30;11.13;;;;;;;;;;5063225;28;20221;-68
2022/03/19 12:50:36;;;;;;;16.65;11.38;;;;;;;;;;5063226;28;20202;-68
2022/03/19 12:53:02;;;;;;;13.07;10.73;;;;;;;;;;5063267;28;20505;-68
2022/03/19 12:55:28;;;;;;;13.32;10.77;;;;;;;;;;5063266;28;20374;-68
2022/03/19 12:57:56;;;;;;;16.08;11.43;;;;;;;;;;5063039;28;20231;-68
2022/03/19 13:00:24;;;;;;;14.27;11.60;;;;;;;;;;5063015;28;20547;-68
2022/03/19 13:02:50;;;;;;;14.10;10.82;;;;;;;;;;5063183;28;20281;-68
2022/03/19 13:05:17;;;;;;;12.50;10.90;;;;;;;;;;5062982;28;20232;-68
2022/03/19 13:07:58;;;;;;;16.45;11.35;;;;;;;;;;5062658;28;20262;-68
2022/03/19 13:10:24;;;;;;;14.85;10.88;;;;;;;;;;5062892;28;20396;-68
2022/03/19 13:13:02;;;;;;;13.30;10.73;;;;;;;;;;5062908;28;20193;-68
2022/03/19 13:15:30;;;;;;;16.42;10.18;;;;;;;;;;5063057;28;20527;-68
2022/03/19 13:17:56;;;;;;;16.42;11.55;;;;;;;;;;5062804;28;20432;-68
2022/03/19 13:20:22;;;;;;;12.93;10.15;;;;;;;;;;5062961;28;20504;-68
2022/03/19 13:22:49;;;;;;;13.07;9.52;;;;;;;;;;5062830;28;20205;-68
2022/03/19 13:25:15;;;;;;;10.38;8.65;;;;;;;;;;5062467;28;20208;-68
2022/03/19 13:27:41;;;;;;;10.32;7.93;;;;;;;;;;5062549;28;20237;-68
2022/03/19 13:30:10;;;;;;;8.32;7.15;;;;;;;;;;5062810;28;20220;-68
2022/03/19 13:32:38;;;;;;;9.40;7.20;;;;;;;;;;5062782;28;20201;-68
2022/03/19 13:35:04;;;;;;;9.90;7.75;;;;;;;;;;5062746;28;20201;-67
2022/03/19 13:37:35;;;;;;;8.00;7.05;;;;;;;;;;5062260;28;20231;-68
2022/03/19 13:40:02;;;;;;;8.52;6.93;;;;;;;;;;5062193;28;20211;-68
2022/03/19 13:42:30;;;;;;;11.07;7.50;;;;;;;;;;5062541;28;20209;-68
2022/03/19 13:45:01;;;;;;;8.80;7.07;;;;;;;;;;5062374;28;20197;-67
2022/03/19 13:47:32;;;;;;;9.15;7.13;;;;;;;;;;5062380;28;20224;-67
2022/03/19 13:50:00;;;;;;;8.73;6.60;;;;;;;;;;5062118;28;20516;-67
2022/03/19 13:52:28;;;;;;;8.05;6.57;;;;;;;;;;5061832;28;20220;-67
2022/03/19 13:54:55;;;;;;;6.93;5.72;;;;;;;;;;5062339;28;20196;-67
2022/03/19 13:57:22;;;;;;;9.52;6.25;;;;;;;;;;5062212;28;20204;-67
2022/03/19 13:59:49;;;;;;;8.57;5.60;;;;;;;;;;5062144;28;20197;-67
2022/03/19 14:02:15;;;;;;;8.38;5.70;;;;;;;;;;5061958;28;20311;-67
2022/03/19 14:04:41;;;;;;;7.65;6.03;;;;;;;;;;5061835;28;20197;-67
2022/03/19 14:07:09;;;;;;;9.35;6.03;;;;;;;;;;5061595;28;20205;-67
2022/03/19 14:09:35;;;;;;;7.35;6.20;;;;;;;;;;5062069;28;20193;-67
2022/03/19 14:12:02;;;;;;;8.32;6.35;;;;;;;;;;5061952;28;20197;-67
2022/03/19 14:14:36;;;;;;;8.10;5.80;;;;;;;;;;5061761;28;20205;-67
2022/03/19 14:17:02;;;;;;;6.63;5.20;;;;;;;;;;5061651;28;20197;-67
2022/03/19 14:19:29;;;;;;;7.53;5.47;;;;;;;;;;5061578;28;20239;-68
2022/03/19 14:21:56;;;;;;;7.00;5.45;;;;;;;;;;5061931;28;20219;-68
2022/03/19 14:24:27;;;;;;;5.28;4.60;;;;;;;;;;5061744;28;20232;-68
2022/03/19 14:26:56;;;;;;;5.18;4.68;;;;;;;;;;5061801;28;20224;-68
2022/03/19 14:29:22;;;;;;;6.15;5.25;;;;;;;;;;5061733;28;20271;-68
2022/03/19 14:31:49;;;;;;;7.03;4.70;;;;;;;;;;5061512;28;20197;-67
2022/03/19 14:34:15;;;;;;;6.03;4.65;;;;;;;;;;5062063;28;20197;-67
2022/03/19 14:36:41;;;;;;;6.75;4.78;;;;;;;;;;5063503;28;20197;-67
2022/03/19 14:39:08;;;;;;;5.53;5.03;;;;;;;;;;5065785;28;20426;-68